sensor_id;sensor_type;location;lat;lon;timestamp;temperature;humidity
25332;DHT22;13284;52.748;13.452;2024-03-23T00:54:37;8.00;99.90
25332;DHT22;13284;52.748;13.452;2024-03-23T00:57:03;8.00;99.90
25332;DHT22;13284;52.748;13.452;2024-03-23T00:59:28;8.00;99.90
25332;DHT22;13284;52.748;13.452;2024-03-23T01:01:57;8.00;99.90
25332;DHT22;13284;52.748;13.452;2024-03-23T01:04:22;7.90;99.90
25332;DHT22;13284;52.748;13.452;2024-03-23T01:06:48;7.90;99.90
25332;DHT22;13284;52.748;13.452;2024-03-23T01:09:13;7.90;99.90
25332;DHT22;13284;52.748;13.452;2024-03-23T01:11:39;7.90;99.90
25332;DHT22;13284;52.748;13.452;2024-03-23T01:14:05;7.90;99.90
25332;DHT22;13284;52.748;13.452;2024-03-23T01:16:31;7.90;99.90
25332;DHT22;13284;52.748;13.452;2024-03-23T01:18:57;8.00;99.90
25332;DHT22;13284;52.748;13.452;2024-03-23T01:21:22;8.00;99.90
25332;DHT22;13284;52.748;13.452;2024-03-23T01:23:48;8.00;99.90
25332;DHT22;13284;52.748;13.452;2024-03-23T01:26:13;8.00;99.90
25332;DHT22;13284;52.748;13.452;2024-03-23T01:28:40;8.00;99.90
25332;DHT22;13284;52.748;13.452;2024-03-23T01:31:05;7.90;99.90
25332;DHT22;13284;52.748;13.452;2024-03-23T01:33:31;7.90;99.90
25332;DHT22;13284;52.748;13.452;2024-03-23T01:35:56;7.90;99.90
25332;DHT22;13284;52.748;13.452;2024-03-23T01:38:22;7.90;99.90
25332;DHT22;13284;52.748;13.452;2024-03-23T01:40:47;7.90;99.90
25332;DHT22;13284;52.748;13.452;2024-03-23T01:43:13;7.90;99.90
25332;DHT22;13284;52.748;13.452;2024-03-23T01:45:39;7.90;99.90
25332;DHT22;13284;52.748;13.452;2024-03-23T01:48:05;7.90;99.90
25332;DHT22;13284;52.748;13.452;2024-03-23T01:50:31;7.90;99.90
25332;DHT22;13284;52.748;13.452;2024-03-23T01:53:00;7.90;99.90
25332;DHT22;13284;52.748;13.452;2024-03-23T01:55:27;7.90;99.90
25332;DHT22;13284;52.748;13.452;2024-03-23T01:57:52;7.80;99.90
25332;DHT22;13284;52.748;13.452;2024-03-23T02:00:18;7.90;99.90
25332;DHT22;13284;52.748;13.452;2024-03-23T02:02:44;7.80;99.90
25332;DHT22;13284;52.748;13.452;2024-03-23T02:05:11;7.90;99.90
25332;DHT22;13284;52.748;13.452;2024-03-23T02:07:38;7.90;99.90
25332;DHT22;13284;52.748;13.452;2024-03-23T02:10:05;7.90;99.90
25332;DHT22;13284;52.748;13.452;2024-03-23T02:12:31;7.90;99.90
25332;DHT22;13284;52.748;13.452;2024-03-23T02:14:56;7.90;99.90
25332;DHT22;13284;52.748;13.452;2024-03-23T02:17:22;7.90;99.90
25332;DHT22;13284;52.748;13.452;2024-03-23T02:19:47;7.90;99.90
25332;DHT22;13284;52.748;13.452;2024-03-23T02:22:13;7.90;99.90
25332;DHT22;13284;52.748;13.452;2024-03-23T02:24:40;7.90;99.90
25332;DHT22;13284;52.748;13.452;2024-03-23T02:27:06;7.90;99.90
25332;DHT22;13284;52.748;13.452;2024-03-23T02:29:31;7.90;99.90
25332;DHT22;13284;52.748;13.452;2024-03-23T02:31:57;7.90;99.90
25332;DHT22;13284;52.748;13.452;2024-03-23T02:34:24;7.80;99.90
25332;DHT22;13284;52.748;13.452;2024-03-23T02:36:49;7.80;99.90
25332;DHT22;13284;52.748;13.452;2024-03-23T02:39:15;7.70;99.90
25332;DHT22;13284;52.748;13.452;2024-03-23T02:41:40;7.70;99.90
25332;DHT22;13284;52.748;13.452;2024-03-23T02:44:06;7.80;99.90
25332;DHT22;13284;52.748;13.452;2024-03-23T02:46:32;7.90;99.90
25332;DHT22;13284;52.748;13.452;2024-03-23T02:48:57;7.90;99.90
25332;DHT22;13284;52.748;13.452;2024-03-23T02:51:23;7.90;99.90
25332;DHT22;13284;52.748;13.452;2024-03-23T02:53:48;7.90;99.90
25332;DHT22;13284;52.748;13.452;2024-03-23T02:56:14;7.90;99.90
25332;DHT22;13284;52.748;13.452;2024-03-23T02:58:42;8.00;99.90
25332;DHT22;13284;52.748;13.452;2024-03-23T03:01:08;7.90;99.90
25332;DHT22;13284;52.748;13.452;2024-03-23T03:03:33;7.80;99.90
25332;DHT22;13284;52.748;13.452;2024-03-23T03:05:59;7.80;99.90
25332;DHT22;13284;52.748;13.452;2024-03-23T03:08:24;7.90;99.90
25332;DHT22;13284;52.748;13.452;2024-03-23T03:10:50;7.90;99.90
25332;DHT22;13284;52.748;13.452;2024-03-23T03:13:16;7.90;99.90
25332;DHT22;13284;52.748;13.452;2024-03-23T03:15:43;7.90;99.90
25332;DHT22;13284;52.748;13.452;2024-03-23T03:18:09;7.80;99.90
25332;DHT22;13284;52.748;13.452;2024-03-23T03:20:37;7.90;99.90
25332;DHT22;13284;52.748;13.452;2024-03-23T03:23:03;7.80;99.90
25332;DHT22;13284;52.748;13.452;2024-03-23T03:25:30;7.70;99.90
25332;DHT22;13284;52.748;13.452;2024-03-23T03:27:55;7.70;99.90
25332;DHT22;13284;52.748;13.452;2024-03-23T03:30:21;7.60;99.90
25332;DHT22;13284;52.748;13.452;2024-03-23T03:32:46;7.60;99.90
25332;DHT22;13284;52.748;13.452;2024-03-23T03:35:12;7.60;99.90
25332;DHT22;13284;52.748;13.452;2024-03-23T03:37:37;7.60;99.90
25332;DHT22;13284;52.748;13.452;2024-03-23T03:40:03;7.60;99.90
25332;DHT22;13284;52.748;13.452;2024-03-23T03:42:28;7.60;99.90
25332;DHT22;13284;52.748;13.452;2024-03-23T03:44:54;7.50;99.90
25332;DHT22;13284;52.748;13.452;2024-03-23T03:47:19;7.50;99.90
25332;DHT22;13284;52.748;13.452;2024-03-23T03:49:45;7.50;99.90
25332;DHT22;13284;52.748;13.452;2024-03-23T03:52:10;7.50;99.90
25332;DHT22;13284;52.748;13.452;2024-03-23T03:54:36;7.60;99.90
25332;DHT22;13284;52.748;13.452;2024-03-23T03:57:02;7.60;99.90
25332;DHT22;13284;52.748;13.452;2024-03-23T03:59:29;7.60;99.90
25332;DHT22;13284;52.748;13.452;2024-03-23T04:01:54;7.60;99.90
25332;DHT22;13284;52.748;13.452;2024-03-23T04:04:20;7.50;99.90
25332;DHT22;13284;52.748;13.452;2024-03-23T04:06:47;7.50;99.90
25332;DHT22;13284;52.748;13.452;2024-03-23T04:09:13;7.50;99.90
25332;DHT22;13284;52.748;13.452;2024-03-23T04:11:40;7.50;99.90
25332;DHT22;13284;52.748;13.452;2024-03-23T04:14:06;7.50;99.90
25332;DHT22;13284;52.748;13.452;2024-03-23T04:16:35;7.50;99.90
25332;DHT22;13284;52.748;13.452;2024-03-23T04:19:01;7.50;99.90
25332;DHT22;13284;52.748;13.452;2024-03-23T04:21:26;7.40;99.90
25332;DHT22;13284;52.748;13.452;2024-03-23T04:23:52;7.50;99.90
25332;DHT22;13284;52.748;13.452;2024-03-23T04:26:17;7.40;99.90
25332;DHT22;13284;52.748;13.452;2024-03-23T04:28:43;7.40;99.90
25332;DHT22;13284;52.748;13.452;2024-03-23T04:31:09;7.40;99.90
25332;DHT22;13284;52.748;13.452;2024-03-23T04:33:35;7.40;99.90
25332;DHT22;13284;52.748;13.452;2024-03-23T04:36:00;7.30;99.90
25332;DHT22;13284;52.748;13.452;2024-03-23T04:38:26;7.30;99.90
25332;DHT22;13284;52.748;13.452;2024-03-23T04:40:59;7.30;99.90
25332;DHT22;13284;52.748;13.452;2024-03-23T04:43:26;7.30;99.90
25332;DHT22;13284;52.748;13.452;2024-03-23T04:45:51;7.30;99.90
25332;DHT22;13284;52.748;13.452;2024-03-23T04:48:22;7.30;99.90
25332;DHT22;13284;52.748;13.452;2024-03-23T04:50:57;7.20;99.90
25332;DHT22;13284;52.748;13.452;2024-03-23T04:53:24;7.20;99.90
25332;DHT22;13284;52.748;13.452;2024-03-23T04:55:54;7.20;99.90
25332;DHT22;13284;52.748;13.452;2024-03-23T04:58:19;7.20;99.90
25332;DHT22;13284;52.748;13.452;2024-03-23T05:00:45;7.20;99.90
25332;DHT22;13284;52.748;13.452;2024-03-23T05:03:10;7.20;99.90
25332;DHT22;13284;52.748;13.452;2024-03-23T05:05:36;7.10;99.90
25332;DHT22;13284;52.748;13.452;2024-03-23T05:08:01;7.20;99.90
25332;DHT22;13284;52.748;13.452;2024-03-23T05:10:26;7.10;99.90
25332;DHT22;13284;52.748;13.452;2024-03-23T05:12:52;7.10;99.90
25332;DHT22;13284;52.748;13.452;2024-03-23T05:15:18;7.10;99.90
25332;DHT22;13284;52.748;13.452;2024-03-23T05:17:43;7.10;99.90
25332;DHT22;13284;52.748;13.452;2024-03-23T05:20:09;7.00;99.90
25332;DHT22;13284;52.748;13.452;2024-03-23T05:22:35;7.10;99.90
25332;DHT22;13284;52.748;13.452;2024-03-23T05:25:01;7.10;99.90
25332;DHT22;13284;52.748;13.452;2024-03-23T05:27:29;7.10;99.90
25332;DHT22;13284;52.748;13.452;2024-03-23T05:29:55;7.00;99.90
25332;DHT22;13284;52.748;13.452;2024-03-23T05:32:20;7.00;99.90
25332;DHT22;13284;52.748;13.452;2024-03-23T05:34:46;7.00;99.90
25332;DHT22;13284;52.748;13.452;2024-03-23T05:37:11;7.00;99.90
25332;DHT22;13284;52.748;13.452;2024-03-23T05:39:37;7.00;99.90
25332;DHT22;13284;52.748;13.452;2024-03-23T05:42:02;6.90;99.90
25332;DHT22;13284;52.748;13.452;2024-03-23T05:44:28;7.00;99.90
25332;DHT22;13284;52.748;13.452;2024-03-23T05:46:53;7.00;99.90
25332;DHT22;13284;52.748;13.452;2024-03-23T05:49:19;7.00;99.90
25332;DHT22;13284;52.748;13.452;2024-03-23T05:51:45;7.00;99.90
25332;DHT22;13284;52.748;13.452;2024-03-23T05:54:10;7.10;99.90
25332;DHT22;13284;52.748;13.452;2024-03-23T05:56:37;7.10;99.90
25332;DHT22;13284;52.748;13.452;2024-03-23T05:59:02;7.10;99.90
25332;DHT22;13284;52.748;13.452;2024-03-23T06:01:28;7.10;99.90
25332;DHT22;13284;52.748;13.452;2024-03-23T06:03:54;7.20;99.90
25332;DHT22;13284;52.748;13.452;2024-03-23T06:06:20;7.20;99.90
25332;DHT22;13284;52.748;13.452;2024-03-23T06:08:45;7.20;99.90
25332;DHT22;13284;52.748;13.452;2024-03-23T06:11:11;7.20;99.90
25332;DHT22;13284;52.748;13.452;2024-03-23T06:13:36;7.10;99.90
25332;DHT22;13284;52.748;13.452;2024-03-23T06:16:02;7.10;99.90
25332;DHT22;13284;52.748;13.452;2024-03-23T06:18:27;7.20;99.90
25332;DHT22;13284;52.748;13.452;2024-03-23T06:20:53;7.20;99.90
25332;DHT22;13284;52.748;13.452;2024-03-23T06:23:19;7.10;99.90
25332;DHT22;13284;52.748;13.452;2024-03-23T06:25:46;7.10;99.90
25332;DHT22;13284;52.748;13.452;2024-03-23T06:28:11;7.10;99.90
25332;DHT22;13284;52.748;13.452;2024-03-23T06:30:37;7.10;99.90
25332;DHT22;13284;52.748;13.452;2024-03-23T06:33:02;7.10;99.90
25332;DHT22;13284;52.748;13.452;2024-03-23T06:35:28;7.10;99.90
25332;DHT22;13284;52.748;13.452;2024-03-23T06:37:53;7.20;99.90
25332;DHT22;13284;52.748;13.452;2024-03-23T06:40:19;7.10;99.90
25332;DHT22;13284;52.748;13.452;2024-03-23T06:42:44;7.10;99.90
25332;DHT22;13284;52.748;13.452;2024-03-23T06:45:10;7.10;99.90
25332;DHT22;13284;52.748;13.452;2024-03-23T06:47:35;7.00;99.90
25332;DHT22;13284;52.748;13.452;2024-03-23T06:50:02;7.00;99.90
25332;DHT22;13284;52.748;13.452;2024-03-23T06:52:28;7.00;99.90
25332;DHT22;13284;52.748;13.452;2024-03-23T06:54:54;7.00;99.90
25332;DHT22;13284;52.748;13.452;2024-03-23T06:57:19;6.90;99.90
25332;DHT22;13284;52.748;13.452;2024-03-23T06:59:45;7.00;99.90
25332;DHT22;13284;52.748;13.452;2024-03-23T07:02:10;6.90;99.90
25332;DHT22;13284;52.748;13.452;2024-03-23T07:04:36;6.90;99.90
25332;DHT22;13284;52.748;13.452;2024-03-23T07:07:02;6.90;99.90
25332;DHT22;13284;52.748;13.452;2024-03-23T07:09:28;6.80;99.90
25332;DHT22;13284;52.748;13.452;2024-03-23T07:11:55;6.90;99.90
25332;DHT22;13284;52.748;13.452;2024-03-23T07:14:22;7.00;99.90
25332;DHT22;13284;52.748;13.452;2024-03-23T07:16:48;7.20;99.90
25332;DHT22;13284;52.748;13.452;2024-03-23T07:19:15;7.20;99.90
25332;DHT22;13284;52.748;13.452;2024-03-23T07:21:42;7.30;99.90
25332;DHT22;13284;52.748;13.452;2024-03-23T07:24:09;7.20;99.90
25332;DHT22;13284;52.748;13.452;2024-03-23T07:26:34;7.10;99.90
25332;DHT22;13284;52.748;13.452;2024-03-23T07:29:00;7.10;99.90
25332;DHT22;13284;52.748;13.452;2024-03-23T07:31:25;7.10;99.90
25332;DHT22;13284;52.748;13.452;2024-03-23T07:33:51;7.10;99.90
25332;DHT22;13284;52.748;13.452;2024-03-23T07:36:16;7.10;99.90
25332;DHT22;13284;52.748;13.452;2024-03-23T07:38:42;7.10;99.90
25332;DHT22;13284;52.748;13.452;2024-03-23T07:41:11;7.20;99.90
25332;DHT22;13284;52.748;13.452;2024-03-23T07:43:38;7.20;99.90
25332;DHT22;13284;52.748;13.452;2024-03-23T07:46:04;7.10;99.90
25332;DHT22;13284;52.748;13.452;2024-03-23T07:48:30;7.20;99.90
25332;DHT22;13284;52.748;13.452;2024-03-23T07:51:05;7.10;99.90
25332;DHT22;13284;52.748;13.452;2024-03-23T07:53:34;7.10;99.90
25332;DHT22;13284;52.748;13.452;2024-03-23T07:56:02;6.90;99.90
25332;DHT22;13284;52.748;13.452;2024-03-23T07:58:28;6.90;99.90
25332;DHT22;13284;52.748;13.452;2024-03-23T08:01:04;6.90;99.90
25332;DHT22;13284;52.748;13.452;2024-03-23T08:03:29;7.00;99.90
25332;DHT22;13284;52.748;13.452;2024-03-23T08:05:55;6.80;99.90
25332;DHT22;13284;52.748;13.452;2024-03-23T08:08:20;6.90;99.90
25332;DHT22;13284;52.748;13.452;2024-03-23T08:10:52;6.90;99.90
25332;DHT22;13284;52.748;13.452;2024-03-23T08:13:18;6.80;99.90
25332;DHT22;13284;52.748;13.452;2024-03-23T08:15:44;6.80;99.90
25332;DHT22;13284;52.748;13.452;2024-03-23T08:18:12;6.80;99.90
25332;DHT22;13284;52.748;13.452;2024-03-23T08:20:38;6.80;99.90
25332;DHT22;13284;52.748;13.452;2024-03-23T08:23:06;6.80;99.90
25332;DHT22;13284;52.748;13.452;2024-03-23T08:25:31;6.70;99.90
25332;DHT22;13284;52.748;13.452;2024-03-23T08:27:57;6.60;99.90
25332;DHT22;13284;52.748;13.452;2024-03-23T08:30:23;6.60;99.90
25332;DHT22;13284;52.748;13.452;2024-03-23T08:32:48;6.60;99.90
25332;DHT22;13284;52.748;13.452;2024-03-23T08:35:14;6.50;99.90
25332;DHT22;13284;52.748;13.452;2024-03-23T08:37:39;6.50;99.90
25332;DHT22;13284;52.748;13.452;2024-03-23T08:40:05;6.40;99.90
25332;DHT22;13284;52.748;13.452;2024-03-23T08:42:31;6.50;99.90
25332;DHT22;13284;52.748;13.452;2024-03-23T08:44:57;6.30;99.90
25332;DHT22;13284;52.748;13.452;2024-03-23T08:47:22;6.20;99.90
25332;DHT22;13284;52.748;13.452;2024-03-23T08:49:48;6.10;99.90
25332;DHT22;13284;52.748;13.452;2024-03-23T08:52:13;6.10;99.90
25332;DHT22;13284;52.748;13.452;2024-03-23T08:54:39;6.00;99.90
25332;DHT22;13284;52.748;13.452;2024-03-23T08:57:04;6.00;99.90
25332;DHT22;13284;52.748;13.452;2024-03-23T08:59:30;6.20;99.90
25332;DHT22;13284;52.748;13.452;2024-03-23T09:01:56;6.20;99.90
25332;DHT22;13284;52.748;13.452;2024-03-23T09:04:21;6.30;99.90
25332;DHT22;13284;52.748;13.452;2024-03-23T09:06:47;6.40;99.90
25332;DHT22;13284;52.748;13.452;2024-03-23T09:09:12;6.30;99.90
25332;DHT22;13284;52.748;13.452;2024-03-23T09:11:38;6.30;99.90
25332;DHT22;13284;52.748;13.452;2024-03-23T09:14:03;6.20;99.90
25332;DHT22;13284;52.748;13.452;2024-03-23T09:16:29;6.00;99.90
25332;DHT22;13284;52.748;13.452;2024-03-23T09:18:54;6.10;99.90
25332;DHT22;13284;52.748;13.452;2024-03-23T09:21:20;6.10;99.90
25332;DHT22;13284;52.748;13.452;2024-03-23T09:23:46;6.00;99.90
25332;DHT22;13284;52.748;13.452;2024-03-23T09:26:12;5.90;99.90
25332;DHT22;13284;52.748;13.452;2024-03-23T09:28:37;5.90;99.90
25332;DHT22;13284;52.748;13.452;2024-03-23T09:31:04;6.00;99.90
25332;DHT22;13284;52.748;13.452;2024-03-23T09:33:29;6.10;99.90
25332;DHT22;13284;52.748;13.452;2024-03-23T09:35:55;6.10;99.90
25332;DHT22;13284;52.748;13.452;2024-03-23T09:38:22;6.00;99.90
25332;DHT22;13284;52.748;13.452;2024-03-23T09:40:50;6.20;99.90
25332;DHT22;13284;52.748;13.452;2024-03-23T09:43:18;6.00;99.90
25332;DHT22;13284;52.748;13.452;2024-03-23T09:45:45;6.00;99.90
25332;DHT22;13284;52.748;13.452;2024-03-23T09:48:10;5.90;99.90
25332;DHT22;13284;52.748;13.452;2024-03-23T09:50:41;6.00;99.90
25332;DHT22;13284;52.748;13.452;2024-03-23T09:53:08;6.10;99.90
25332;DHT22;13284;52.748;13.452;2024-03-23T09:55:34;6.20;99.90
25332;DHT22;13284;52.748;13.452;2024-03-23T09:58:01;6.10;99.90
25332;DHT22;13284;52.748;13.452;2024-03-23T10:00:27;6.10;99.90
25332;DHT22;13284;52.748;13.452;2024-03-23T10:02:55;6.20;99.90
25332;DHT22;13284;52.748;13.452;2024-03-23T10:05:21;6.20;99.90
25332;DHT22;13284;52.748;13.452;2024-03-23T10:07:52;6.20;99.90
25332;DHT22;13284;52.748;13.452;2024-03-23T10:10:18;6.20;99.90
25332;DHT22;13284;52.748;13.452;2024-03-23T10:12:45;6.10;99.90
25332;DHT22;13284;52.748;13.452;2024-03-23T10:15:19;6.30;99.90
25332;DHT22;13284;52.748;13.452;2024-03-23T10:17:45;6.20;99.90
25332;DHT22;13284;52.748;13.452;2024-03-23T10:20:11;6.40;99.90
25332;DHT22;13284;52.748;13.452;2024-03-23T10:22:37;6.40;99.90
25332;DHT22;13284;52.748;13.452;2024-03-23T10:25:10;6.60;99.90
25332;DHT22;13284;52.748;13.452;2024-03-23T10:27:36;6.80;99.90
25332;DHT22;13284;52.748;13.452;2024-03-23T10:30:13;6.90;99.90
25332;DHT22;13284;52.748;13.452;2024-03-23T10:32:39;7.00;99.90
25332;DHT22;13284;52.748;13.452;2024-03-23T10:35:19;7.00;99.90
25332;DHT22;13284;52.748;13.452;2024-03-23T10:37:45;6.90;99.90
25332;DHT22;13284;52.748;13.452;2024-03-23T10:40:15;6.90;99.90
25332;DHT22;13284;52.748;13.452;2024-03-23T10:42:41;6.90;99.90
25332;DHT22;13284;52.748;13.452;2024-03-23T10:45:07;6.90;99.90
25332;DHT22;13284;52.748;13.452;2024-03-23T10:47:37;6.60;99.90
25332;DHT22;13284;52.748;13.452;2024-03-23T10:50:06;6.50;99.90
25332;DHT22;13284;52.748;13.452;2024-03-23T10:52:33;6.50;99.90
25332;DHT22;13284;52.748;13.452;2024-03-23T10:55:04;6.50;99.90
25332;DHT22;13284;52.748;13.452;2024-03-23T10:57:41;6.50;99.90
25332;DHT22;13284;52.748;13.452;2024-03-23T11:00:10;6.50;99.90
25332;DHT22;13284;52.748;13.452;2024-03-23T11:02:36;6.60;99.90
25332;DHT22;13284;52.748;13.452;2024-03-23T11:05:01;6.60;99.90
25332;DHT22;13284;52.748;13.452;2024-03-23T11:07:28;6.50;99.90
25332;DHT22;13284;52.748;13.452;2024-03-23T11:09:54;6.60;99.90
25332;DHT22;13284;52.748;13.452;2024-03-23T11:14:52;6.60;99.90
25332;DHT22;13284;52.748;13.452;2024-03-23T11:17:22;6.60;99.90
25332;DHT22;13284;52.748;13.452;2024-03-23T11:25:24;6.60;99.90
25332;DHT22;13284;52.748;13.452;2024-03-23T11:27:56;6.60;99.90
25332;DHT22;13284;52.748;13.452;2024-03-23T11:30:26;6.70;99.90
25332;DHT22;13284;52.748;13.452;2024-03-23T11:32:55;6.70;99.90
25332;DHT22;13284;52.748;13.452;2024-03-23T11:35:34;6.70;99.90
25332;DHT22;13284;52.748;13.452;2024-03-23T11:38:06;6.80;99.90
25332;DHT22;13284;52.748;13.452;2024-03-23T11:40:33;6.80;99.90
25332;DHT22;13284;52.748;13.452;2024-03-23T11:43:06;6.80;99.90
25332;DHT22;13284;52.748;13.452;2024-03-23T11:45:43;7.00;99.90
25332;DHT22;13284;52.748;13.452;2024-03-23T11:48:14;7.00;99.90
25332;DHT22;13284;52.748;13.452;2024-03-23T11:50:44;7.00;99.90
25332;DHT22;13284;52.748;13.452;2024-03-23T11:53:15;6.90;99.90
25332;DHT22;13284;52.748;13.452;2024-03-23T11:55:49;7.00;99.90
25332;DHT22;13284;52.748;13.452;2024-03-23T11:58:15;7.10;99.90
25332;DHT22;13284;52.748;13.452;2024-03-23T12:00:41;7.20;99.90
25332;DHT22;13284;52.748;13.452;2024-03-23T12:03:07;7.30;99.90
25332;DHT22;13284;52.748;13.452;2024-03-23T12:05:33;7.60;99.90
25332;DHT22;13284;52.748;13.452;2024-03-23T12:08:33;7.50;99.90
25332;DHT22;13284;52.748;13.452;2024-03-23T12:11:10;7.60;99.90
25332;DHT22;13284;52.748;13.452;2024-03-23T12:13:37;7.60;99.90
25332;DHT22;13284;52.748;13.452;2024-03-23T12:16:29;7.50;99.90
25332;DHT22;13284;52.748;13.452;2024-03-23T12:19:05;7.50;99.90
25332;DHT22;13284;52.748;13.452;2024-03-23T12:21:31;7.50;99.90
25332;DHT22;13284;52.748;13.452;2024-03-23T12:23:56;7.50;99.90
25332;DHT22;13284;52.748;13.452;2024-03-23T12:26:21;7.50;99.90
25332;DHT22;13284;52.748;13.452;2024-03-23T12:28:48;7.40;99.90
25332;DHT22;13284;52.748;13.452;2024-03-23T12:31:14;7.40;99.90
25332;DHT22;13284;52.748;13.452;2024-03-23T12:33:39;7.40;99.90
25332;DHT22;13284;52.748;13.452;2024-03-23T12:36:05;7.30;99.90
25332;DHT22;13284;52.748;13.452;2024-03-23T12:38:30;7.30;99.90
25332;DHT22;13284;52.748;13.452;2024-03-23T12:40:56;7.50;99.90
25332;DHT22;13284;52.748;13.452;2024-03-23T12:43:21;7.40;99.90
25332;DHT22;13284;52.748;13.452;2024-03-23T12:45:50;7.40;99.90
25332;DHT22;13284;52.748;13.452;2024-03-23T12:48:18;7.40;99.90
25332;DHT22;13284;52.748;13.452;2024-03-23T12:50:44;7.60;99.90
25332;DHT22;13284;52.748;13.452;2024-03-23T12:53:09;7.50;99.90
25332;DHT22;13284;52.748;13.452;2024-03-23T12:55:35;7.70;99.90
25332;DHT22;13284;52.748;13.452;2024-03-23T12:58:01;7.90;99.90
25332;DHT22;13284;52.748;13.452;2024-03-23T13:00:26;8.00;99.90
25332;DHT22;13284;52.748;13.452;2024-03-23T13:02:52;8.30;99.90
25332;DHT22;13284;52.748;13.452;2024-03-23T13:05:17;8.60;99.90
25332;DHT22;13284;52.748;13.452;2024-03-23T13:07:42;8.80;99.90
25332;DHT22;13284;52.748;13.452;2024-03-23T13:10:08;8.80;99.90
25332;DHT22;13284;52.748;13.452;2024-03-23T13:12:34;8.90;99.90
25332;DHT22;13284;52.748;13.452;2024-03-23T13:15:00;9.10;99.90
25332;DHT22;13284;52.748;13.452;2024-03-23T13:17:26;9.10;99.90
25332;DHT22;13284;52.748;13.452;2024-03-23T13:19:55;9.20;99.90
25332;DHT22;13284;52.748;13.452;2024-03-23T13:22:21;9.00;99.90
25332;DHT22;13284;52.748;13.452;2024-03-23T13:24:47;9.10;99.90
25332;DHT22;13284;52.748;13.452;2024-03-23T13:27:12;9.00;99.90
25332;DHT22;13284;52.748;13.452;2024-03-23T13:29:38;9.40;99.90
25332;DHT22;13284;52.748;13.452;2024-03-23T13:32:04;9.10;99.90
25332;DHT22;13284;52.748;13.452;2024-03-23T13:34:29;9.40;99.90
25332;DHT22;13284;52.748;13.452;2024-03-23T13:36:55;10.10;99.90
25332;DHT22;13284;52.748;13.452;2024-03-23T13:39:23;10.20;99.90
25332;DHT22;13284;52.748;13.452;2024-03-23T13:41:49;10.20;99.90
25332;DHT22;13284;52.748;13.452;2024-03-23T13:44:14;9.90;99.90
25332;DHT22;13284;52.748;13.452;2024-03-23T13:46:41;9.70;99.90
25332;DHT22;13284;52.748;13.452;2024-03-23T13:51:53;9.30;99.90
25332;DHT22;13284;52.748;13.452;2024-03-23T13:54:19;9.10;99.90
25332;DHT22;13284;52.748;13.452;2024-03-23T13:56:45;8.70;99.90
25332;DHT22;13284;52.748;13.452;2024-03-23T13:59:10;8.30;99.90
25332;DHT22;13284;52.748;13.452;2024-03-23T14:01:36;7.50;99.90
25332;DHT22;13284;52.748;13.452;2024-03-23T14:04:01;6.70;99.90
25332;DHT22;13284;52.748;13.452;2024-03-23T14:06:26;6.40;99.90
25332;DHT22;13284;52.748;13.452;2024-03-23T14:08:52;6.20;99.90
25332;DHT22;13284;52.748;13.452;2024-03-23T14:11:18;6.20;99.90
25332;DHT22;13284;52.748;13.452;2024-03-23T14:13:44;6.30;99.90
25332;DHT22;13284;52.748;13.452;2024-03-23T14:16:10;6.40;99.90
25332;DHT22;13284;52.748;13.452;2024-03-23T14:18:35;6.50;99.90
25332;DHT22;13284;52.748;13.452;2024-03-23T14:21:01;6.50;99.90
25332;DHT22;13284;52.748;13.452;2024-03-23T14:23:27;6.30;99.90
25332;DHT22;13284;52.748;13.452;2024-03-23T14:25:55;6.00;99.90
25332;DHT22;13284;52.748;13.452;2024-03-23T14:28:21;6.10;99.90
25332;DHT22;13284;52.748;13.452;2024-03-23T14:30:48;6.00;99.90
25332;DHT22;13284;52.748;13.452;2024-03-23T14:33:15;5.80;99.90
25332;DHT22;13284;52.748;13.452;2024-03-23T14:35:40;5.80;99.90
25332;DHT22;13284;52.748;13.452;2024-03-23T14:38:06;5.80;99.90
25332;DHT22;13284;52.748;13.452;2024-03-23T14:40:31;5.80;99.90
25332;DHT22;13284;52.748;13.452;2024-03-23T14:42:57;5.60;99.90
25332;DHT22;13284;52.748;13.452;2024-03-23T14:45:23;5.80;99.90
25332;DHT22;13284;52.748;13.452;2024-03-23T14:47:52;6.40;99.90
25332;DHT22;13284;52.748;13.452;2024-03-23T14:50:18;6.80;99.90
25332;DHT22;13284;52.748;13.452;2024-03-23T14:52:46;7.20;99.90
25332;DHT22;13284;52.748;13.452;2024-03-23T14:55:13;7.40;99.90
25332;DHT22;13284;52.748;13.452;2024-03-23T14:57:39;7.70;99.90
25332;DHT22;13284;52.748;13.452;2024-03-23T15:00:08;7.70;99.90
25332;DHT22;13284;52.748;13.452;2024-03-23T15:02:38;7.50;99.90
25332;DHT22;13284;52.748;13.452;2024-03-23T15:05:04;7.60;99.90
25332;DHT22;13284;52.748;13.452;2024-03-23T15:07:31;7.40;99.90
25332;DHT22;13284;52.748;13.452;2024-03-23T15:09:56;7.50;99.90
25332;DHT22;13284;52.748;13.452;2024-03-23T15:12:22;7.70;99.90
25332;DHT22;13284;52.748;13.452;2024-03-23T15:14:47;7.80;99.90
25332;DHT22;13284;52.748;13.452;2024-03-23T15:17:13;8.00;99.90
25332;DHT22;13284;52.748;13.452;2024-03-23T15:19:39;8.20;99.90
25332;DHT22;13284;52.748;13.452;2024-03-23T15:22:04;8.30;99.90
25332;DHT22;13284;52.748;13.452;2024-03-23T15:24:30;8.30;99.90
25332;DHT22;13284;52.748;13.452;2024-03-23T15:26:56;8.30;99.90
25332;DHT22;13284;52.748;13.452;2024-03-23T15:29:22;8.30;99.90
25332;DHT22;13284;52.748;13.452;2024-03-23T15:31:48;8.00;99.90
25332;DHT22;13284;52.748;13.452;2024-03-23T15:34:18;8.10;99.90
25332;DHT22;13284;52.748;13.452;2024-03-23T15:36:44;8.00;99.90
25332;DHT22;13284;52.748;13.452;2024-03-23T15:39:10;8.00;99.90
25332;DHT22;13284;52.748;13.452;2024-03-23T15:41:35;7.80;99.90
25332;DHT22;13284;52.748;13.452;2024-03-23T15:44:02;7.90;99.90
25332;DHT22;13284;52.748;13.452;2024-03-23T15:46:28;8.00;99.90
25332;DHT22;13284;52.748;13.452;2024-03-23T15:48:53;7.90;99.90
25332;DHT22;13284;52.748;13.452;2024-03-23T15:51:20;7.80;99.90
25332;DHT22;13284;52.748;13.452;2024-03-23T15:53:45;7.60;99.90
25332;DHT22;13284;52.748;13.452;2024-03-23T15:56:10;7.70;99.90
25332;DHT22;13284;52.748;13.452;2024-03-23T15:58:36;7.60;99.90
25332;DHT22;13284;52.748;13.452;2024-03-23T16:01:03;7.70;99.90
25332;DHT22;13284;52.748;13.452;2024-03-23T16:03:30;7.70;99.90
25332;DHT22;13284;52.748;13.452;2024-03-23T16:05:59;7.60;99.90
25332;DHT22;13284;52.748;13.452;2024-03-23T16:08:25;7.60;99.90
25332;DHT22;13284;52.748;13.452;2024-03-23T16:10:51;7.50;99.90
25332;DHT22;13284;52.748;13.452;2024-03-23T16:13:17;7.50;99.90
25332;DHT22;13284;52.748;13.452;2024-03-23T16:15:57;7.50;99.90
25332;DHT22;13284;52.748;13.452;2024-03-23T16:18:23;7.50;99.90
25332;DHT22;13284;52.748;13.452;2024-03-23T16:20:56;7.40;99.90
25332;DHT22;13284;52.748;13.452;2024-03-23T16:23:22;7.30;99.90
25332;DHT22;13284;52.748;13.452;2024-03-23T16:25:52;7.40;99.90
25332;DHT22;13284;52.748;13.452;2024-03-23T16:28:31;7.30;99.90
25332;DHT22;13284;52.748;13.452;2024-03-23T16:31:02;7.30;99.90